This is the latest recevied weather packets stored in our database for station/object EA1IDU-11. If no packets are shown the sender has not sent any weather packets the latest 1 day(s).
| Time | Temp. | Humidity | Pressure | Rain* | Wind** | Luminosity | Snow |
|---|---|---|---|---|---|---|---|
| 1778047099 | 7.22° C | 61% | 1022.5 hPa | - | - | - | - |
| 1778046199 | 6.11° C | 61% | 1022.3 hPa | - | - | - | - |
| 1778045299 | 6.11° C | 61% | 1022.2 hPa | - | - | - | - |
| 1778044399 | 6.67° C | 60% | 1022.1 hPa | - | - | - | - |
| 1778040798 | 7.22° C | 60% | 1022.2 hPa | - | - | - | - |
| 1778039898 | 7.22° C | 60% | 1022.3 hPa | - | - | - | - |
| 1778038998 | 6.67° C | 60% | 1022.4 hPa | - | - | - | - |
| 1778038098 | 6.67° C | 60% | 1022.4 hPa | - | - | - | - |
| 1778037198 | 6.67° C | 60% | 1022.4 hPa | - | - | - | - |
| 1778036297 | 6.11° C | 60% | 1022.4 hPa | - | - | - | - |
| 1778034497 | 6.11° C | 59% | 1022.3 hPa | - | - | - | - |
| 1778033597 | 6.11° C | 60% | 1022.3 hPa | - | - | - | - |
| 1778032697 | 5.56° C | 59% | 1022.5 hPa | - | - | - | - |
| 1778031797 | 6.11° C | 59% | 1022.5 hPa | - | - | - | - |
| 1778030897 | 6.11° C | 58% | 1022.5 hPa | - | - | - | - |
| 1778029997 | 6.11° C | 59% | 1022.4 hPa | - | - | - | - |
| 1778029097 | 6.67° C | 58% | 1022.4 hPa | - | - | - | - |
| 1778028197 | 6.67° C | 58% | 1022.5 hPa | - | - | - | - |
| 1778027297 | 6.67° C | 58% | 1022.6 hPa | - | - | - | - |
| 1778019196 | 8.33° C | 57% | 1023 hPa | - | - | - | - |
| 1778018296 | 8.89° C | 57% | 1023.3 hPa | - | - | - | - |
* Rain since midnight (hover to see other rain measurements)
** Current wind speed in m/s (hover to see current wind gust speed)